Time;durP1;ratioP1;P1;durP2;ratioP2;P2;SDS_P1;SDS_P2;PMS_P1;PMS_P2;Temp;Humidity;BMP_temperature;BMP_pressure;BME280_temperature;BME280_humidity;BME280_pressure;Samples;Min_cycle;Max_cycle;Signal;HPM_P1;HPM_P2
2023/10/31 00:00:22;;;;;;;0.63;0.30;;;12.10;99.90;;;;;;5050971;28;20037;-72
2023/10/31 00:02:47;;;;;;;0.82;0.15;;;12.10;99.90;;;;;;5051214;28;20390;-72
2023/10/31 00:05:13;;;;;;;0.47;0.20;;;12.10;99.90;;;;;;5051547;28;20025;-73
2023/10/31 00:07:38;;;;;;;0.90;0.45;;;12.10;99.90;;;;;;5051615;28;20021;-72
2023/10/31 00:10:04;;;;;;;0.30;0.25;;;12.10;99.90;;;;;;5051854;28;20021;-75
2023/10/31 00:12:30;;;;;;;0.45;0.20;;;12.10;99.90;;;;;;5052271;28;20061;-73
2023/10/31 00:14:55;;;;;;;0.40;0.20;;;12.10;99.90;;;;;;5052090;28;20419;-73
2023/10/31 00:17:21;;;;;;;1.17;0.30;;;12.10;99.90;;;;;;5052302;28;20452;-73
2023/10/31 00:19:46;;;;;;;0.38;0.22;;;12.10;99.90;;;;;;5051910;28;20106;-74
2023/10/31 00:22:12;;;;;;;0.10;0.10;;;12.10;99.90;;;;;;5050402;28;20025;-75
2023/10/31 00:24:38;;;;;;;0.10;0.10;;;12.00;99.90;;;;;;5055414;28;20021;-72
2023/10/31 00:27:03;;;;;;;1.52;0.20;;;12.00;99.90;;;;;;5055439;28;20537;-72
2023/10/31 00:29:29;;;;;;;0.25;0.22;;;12.00;99.90;;;;;;5055240;28;20021;-73
2023/10/31 00:31:55;;;;;;;0.80;0.30;;;12.00;99.90;;;;;;5054940;28;20087;-73
2023/10/31 00:34:20;;;;;;;0.80;0.20;;;12.00;99.90;;;;;;5055555;28;20024;-71
2023/10/31 00:36:46;;;;;;;0.50;0.20;;;12.00;99.90;;;;;;5055018;28;20029;-72
2023/10/31 00:39:12;;;;;;;0.98;0.30;;;12.00;99.90;;;;;;5055130;28;20025;-71
2023/10/31 00:41:39;;;;;;;0.38;0.20;;;11.90;99.90;;;;;;5055240;28;20440;-72
2023/10/31 00:44:05;;;;;;;1.48;0.30;;;11.90;99.90;;;;;;5054987;28;20056;-71
2023/10/31 00:46:30;;;;;;;1.27;0.30;;;12.00;99.90;;;;;;5054625;28;20032;-71
2023/10/31 00:48:57;;;;;;;0.43;0.22;;;11.90;99.90;;;;;;5055207;28;20396;-73
2023/10/31 00:51:22;;;;;;;0.55;0.30;;;12.00;99.90;;;;;;5054009;28;20167;-74
2023/10/31 00:53:48;;;;;;;0.60;0.30;;;11.80;99.90;;;;;;5055169;28;20472;-73
2023/10/31 00:56:14;;;;;;;2.70;0.30;;;11.80;99.90;;;;;;5055306;28;20033;-74
2023/10/31 00:58:39;;;;;;;1.42;0.60;;;11.80;99.90;;;;;;5054889;28;20037;-72
2023/10/31 01:01:05;;;;;;;0.40;0.20;;;11.70;99.90;;;;;;5055337;28;20092;-73
2023/10/31 01:03:31;;;;;;;0.22;0.20;;;11.50;99.90;;;;;;5053450;28;20021;-72
2023/10/31 01:05:56;;;;;;;1.45;0.30;;;11.50;99.90;;;;;;5055052;28;20507;-74
2023/10/31 01:08:22;;;;;;;0.38;0.20;;;11.40;99.90;;;;;;5054852;28;20021;-73
2023/10/31 01:10:47;;;;;;;0.20;0.20;;;11.40;99.90;;;;;;5054537;28;20525;-72
2023/10/31 01:13:13;;;;;;;0.88;0.32;;;11.30;99.90;;;;;;5052871;28;20052;-71
2023/10/31 01:15:39;;;;;;;0.47;0.20;;;11.30;99.90;;;;;;5054889;28;20024;-71
2023/10/31 01:18:05;;;;;;;3.08;0.35;;;11.20;99.90;;;;;;5054275;28;20036;-73
2023/10/31 01:20:31;;;;;;;0.77;0.30;;;11.20;99.90;;;;;;5053998;28;20104;-74
2023/10/31 01:22:57;;;;;;;0.28;0.20;;;11.20;99.90;;;;;;5054518;28;20155;-74
2023/10/31 01:25:22;;;;;;;1.00;0.30;;;11.10;99.90;;;;;;5054301;28;20013;-75
2023/10/31 01:27:48;;;;;;;0.28;0.13;;;11.10;99.90;;;;;;5054237;28;20029;-73
2023/10/31 01:30:13;;;;;;;1.13;0.40;;;11.20;99.90;;;;;;5054432;28;20025;-74
2023/10/31 01:32:39;;;;;;;0.20;0.20;;;11.20;99.90;;;;;;5054266;28;20097;-74
2023/10/31 01:35:05;;;;;;;0.85;0.30;;;11.20;99.90;;;;;;5054556;28;20024;-73
2023/10/31 01:37:30;;;;;;;2.50;0.50;;;11.20;99.90;;;;;;5054660;28;20021;-72
2023/10/31 01:39:56;;;;;;;0.70;0.30;;;11.30;99.90;;;;;;5054047;28;20033;-72
2023/10/31 01:42:21;;;;;;;0.63;0.30;;;11.20;99.90;;;;;;5052717;28;20032;-73
2023/10/31 01:44:47;;;;;;;0.35;0.22;;;11.30;99.90;;;;;;5054196;28;20418;-73
2023/10/31 01:47:13;;;;;;;0.85;0.30;;;11.30;99.90;;;;;;5054294;28;20086;-73
2023/10/31 01:49:39;;;;;;;2.05;0.43;;;11.30;99.90;;;;;;5053785;28;20104;-73
2023/10/31 01:52:06;;;;;;;0.40;0.20;;;11.30;99.90;;;;;;5054354;28;20029;-73
2023/10/31 01:54:33;;;;;;;1.27;0.20;;;11.30;99.90;;;;;;5053727;28;20025;-73
2023/10/31 01:57:00;;;;;;;1.85;0.60;;;11.20;99.90;;;;;;5053397;28;20025;-71
2023/10/31 01:59:27;;;;;;;1.45;0.20;;;11.20;99.90;;;;;;5053437;28;20025;-73
2023/10/31 02:01:53;;;;;;;0.70;0.30;;;11.30;99.90;;;;;;5053475;28;20070;-71
2023/10/31 02:04:18;;;;;;;2.55;0.50;;;11.30;99.90;;;;;;5053321;28;20027;-74
2023/10/31 02:06:44;;;;;;;2.15;0.38;;;11.30;99.90;;;;;;5053520;28;20440;-74
2023/10/31 02:09:10;;;;;;;0.60;0.30;;;11.30;99.90;;;;;;5053170;28;20024;-74
2023/10/31 02:11:35;;;;;;;0.80;0.38;;;11.30;99.90;;;;;;5052931;28;20029;-74
2023/10/31 02:14:01;;;;;;;1.30;0.45;;;11.30;99.90;;;;;;5053501;28;20503;-74
2023/10/31 02:16:27;;;;;;;2.72;0.32;;;11.30;99.90;;;;;;5053510;28;20075;-74
2023/10/31 02:18:53;;;;;;;1.02;0.30;;;11.30;99.90;;;;;;5053457;28;20778;-74
2023/10/31 02:21:20;;;;;;;1.73;0.30;;;11.30;99.90;;;;;;5053411;28;20025;-74
2023/10/31 02:23:58;;;;;;;0.50;0.30;;;11.30;99.90;;;;;;5052924;28;20017;-73
2023/10/31 02:26:28;;;;;;;1.48;0.40;;;11.30;99.90;;;;;;5053276;28;20066;-74
2023/10/31 02:28:53;;;;;;;1.67;0.50;;;11.30;99.90;;;;;;5053068;28;20055;-74
2023/10/31 02:31:19;;;;;;;1.40;0.50;;;11.30;99.90;;;;;;5053311;28;20100;-75
2023/10/31 02:33:44;;;;;;;1.48;0.40;;;11.30;99.90;;;;;;5053088;28;20033;-72
2023/10/31 02:36:10;;;;;;;1.35;0.40;;;11.30;99.90;;;;;;5052821;28;20052;-73
2023/10/31 02:38:35;;;;;;;0.57;0.40;;;11.40;99.90;;;;;;5052218;28;20029;-74
2023/10/31 02:41:01;;;;;;;0.63;0.30;;;11.30;99.90;;;;;;5052176;28;20070;-74
2023/10/31 02:43:30;;;;;;;0.60;0.40;;;11.40;99.90;;;;;;5052786;28;20025;-72
2023/10/31 02:45:55;;;;;;;1.90;0.40;;;11.40;99.90;;;;;;5052617;28;20056;-74
2023/10/31 02:48:21;;;;;;;0.50;0.30;;;11.30;99.90;;;;;;5052568;28;20059;-74
2023/10/31 02:50:46;;;;;;;1.98;0.50;;;11.40;99.90;;;;;;5051327;28;20036;-74
2023/10/31 02:53:12;;;;;;;1.40;0.50;;;11.30;99.90;;;;;;5052686;28;20102;-74
2023/10/31 02:55:38;;;;;;;0.88;0.50;;;11.30;99.90;;;;;;5052196;28;20037;-74
2023/10/31 02:58:03;;;;;;;0.80;0.40;;;11.30;99.90;;;;;;5050843;28;20086;-74
2023/10/31 03:00:29;;;;;;;1.58;0.30;;;11.20;99.90;;;;;;5052279;28;20029;-74
2023/10/31 03:02:54;;;;;;;1.17;0.55;;;11.20;99.90;;;;;;5052294;28;20028;-75
2023/10/31 03:05:20;;;;;;;0.43;0.30;;;11.20;99.90;;;;;;5052236;28;20481;-74
2023/10/31 03:07:46;;;;;;;1.52;0.40;;;11.20;99.90;;;;;;5052013;28;20064;-74
2023/10/31 03:10:11;;;;;;;1.17;0.40;;;11.30;99.90;;;;;;5052565;28;20033;-74
2023/10/31 03:12:37;;;;;;;1.58;0.35;;;11.30;99.90;;;;;;5052381;28;20047;-74
2023/10/31 03:15:06;;;;;;;1.40;0.57;;;11.20;99.90;;;;;;5052758;28;20083;-74
2023/10/31 03:17:32;;;;;;;0.80;0.50;;;11.20;99.90;;;;;;5052696;28;20373;-74
2023/10/31 03:19:57;;;;;;;0.40;0.22;;;11.20;99.90;;;;;;5052909;28;20036;-74
2023/10/31 03:22:23;;;;;;;2.55;0.73;;;11.30;99.90;;;;;;5052811;28;20030;-74
2023/10/31 03:24:48;;;;;;;3.20;0.70;;;11.20;99.90;;;;;;5052368;28;20068;-74
2023/10/31 03:27:14;;;;;;;1.15;0.60;;;11.30;99.90;;;;;;5052630;28;20032;-73
2023/10/31 03:29:40;;;;;;;0.85;0.38;;;11.20;99.90;;;;;;5053039;28;20029;-74
2023/10/31 03:32:05;;;;;;;2.50;0.40;;;11.20;99.90;;;;;;5052665;28;20021;-75
2023/10/31 03:34:31;;;;;;;1.08;0.40;;;11.20;99.90;;;;;;5053046;28;20025;-75
2023/10/31 03:36:57;;;;;;;3.60;0.70;;;11.20;99.90;;;;;;5052191;28;20029;-74
2023/10/31 03:39:25;;;;;;;1.40;0.70;;;11.20;99.90;;;;;;5052446;28;20503;-74
2023/10/31 03:41:51;;;;;;;2.15;0.60;;;11.20;99.90;;;;;;5052712;28;20025;-75
2023/10/31 03:44:16;;;;;;;3.47;0.90;;;11.20;99.90;;;;;;5052615;28;20032;-74
2023/10/31 03:46:42;;;;;;;1.73;0.70;;;11.10;99.90;;;;;;5052640;28;20155;-75
2023/10/31 03:49:07;;;;;;;3.60;1.05;;;11.10;99.90;;;;;;5052675;28;20443;-73
2023/10/31 03:51:34;;;;;;;1.00;0.50;;;11.00;99.90;;;;;;5052323;28;20029;-72
2023/10/31 03:53:59;;;;;;;1.42;0.40;;;11.00;99.90;;;;;;5052397;28;20060;-74
2023/10/31 03:56:25;;;;;;;1.10;0.60;;;11.00;99.90;;;;;;5051869;28;20029;-73
2023/10/31 03:58:51;;;;;;;2.40;0.70;;;10.90;99.90;;;;;;5055075;28;20396;-74
2023/10/31 04:01:16;;;;;;;1.08;0.40;;;10.90;99.90;;;;;;5055882;28;20021;-71
2023/10/31 04:03:42;;;;;;;1.50;0.35;;;10.90;99.90;;;;;;5056393;28;20036;-75
2023/10/31 04:06:08;;;;;;;1.15;0.30;;;10.80;99.90;;;;;;5054144;28;20051;-74
2023/10/31 04:08:40;;;;;;;1.40;0.40;;;10.70;99.90;;;;;;5055632;28;20331;-74
2023/10/31 04:11:05;;;;;;;0.43;0.35;;;10.70;99.90;;;;;;5055646;28;20476;-73
2023/10/31 04:13:31;;;;;;;3.42;0.40;;;10.70;99.90;;;;;;5055553;28;20028;-73
2023/10/31 04:15:56;;;;;;;0.93;0.20;;;10.70;99.90;;;;;;5055347;28;20079;-73
2023/10/31 04:18:22;;;;;;;4.32;0.30;;;10.70;99.90;;;;;;5056225;28;20029;-72
2023/10/31 04:20:47;;;;;;;0.70;0.50;;;10.60;99.90;;;;;;5055394;28;20047;-73
2023/10/31 04:23:13;;;;;;;1.60;0.30;;;10.70;99.90;;;;;;5055652;28;20024;-73
2023/10/31 04:25:39;;;;;;;0.30;0.30;;;10.60;99.90;;;;;;5055745;28;20049;-71
2023/10/31 04:28:04;;;;;;;0.30;0.20;;;10.70;99.90;;;;;;5054435;28;20021;-72
2023/10/31 04:30:30;;;;;;;0.13;0.10;;;10.60;99.90;;;;;;5055619;28;20103;-72
2023/10/31 04:32:55;;;;;;;1.85;0.30;;;10.60;99.90;;;;;;5055260;28;20021;-71
2023/10/31 04:35:21;;;;;;;1.30;0.47;;;10.60;99.90;;;;;;5054986;28;20423;-71
2023/10/31 04:37:46;;;;;;;1.35;0.30;;;10.60;99.90;;;;;;5054425;28;20029;-72
2023/10/31 04:40:12;;;;;;;0.30;0.22;;;10.60;99.90;;;;;;5055112;28;20029;-71
2023/10/31 04:42:42;;;;;;;1.25;0.20;;;10.60;99.90;;;;;;5055210;28;20048;-71
2023/10/31 04:45:08;;;;;;;0.60;0.22;;;10.60;99.90;;;;;;5054877;28;20060;-72
2023/10/31 04:47:33;;;;;;;1.83;0.30;;;10.60;99.90;;;;;;5056137;28;20033;-71
2023/10/31 04:49:59;;;;;;;1.23;0.20;;;10.60;99.90;;;;;;5057775;28;20480;-72
2023/10/31 04:52:25;;;;;;;0.70;0.30;;;10.50;99.90;;;;;;5057439;28;20033;-73
2023/10/31 04:54:52;;;;;;;0.63;0.28;;;10.60;99.90;;;;;;5056454;28;20503;-72
2023/10/31 04:57:17;;;;;;;0.68;0.40;;;10.60;99.90;;;;;;5055161;28;20032;-75
2023/10/31 04:59:43;;;;;;;1.05;0.30;;;10.60;99.90;;;;;;5055289;28;20021;-75
2023/10/31 05:02:09;;;;;;;2.45;0.40;;;10.60;99.90;;;;;;5054793;28;20464;-73
2023/10/31 05:04:39;;;;;;;0.55;0.30;;;10.60;99.90;;;;;;5054141;28;20029;-75
2023/10/31 05:07:04;;;;;;;0.47;0.30;;;10.60;99.90;;;;;;5054529;28;20049;-74
2023/10/31 05:09:30;;;;;;;3.38;0.32;;;10.60;99.90;;;;;;5054085;28;20049;-74
2023/10/31 05:11:55;;;;;;;1.00;0.40;;;10.60;99.90;;;;;;5054778;28;20031;-76
2023/10/31 05:14:21;;;;;;;0.40;0.30;;;10.50;99.90;;;;;;5054508;28;20032;-75
2023/10/31 05:16:46;;;;;;;1.58;0.20;;;10.60;99.90;;;;;;5054396;28;20067;-74
2023/10/31 05:19:12;;;;;;;0.70;0.30;;;10.50;99.90;;;;;;5054223;28;20077;-73
2023/10/31 05:21:38;;;;;;;2.10;0.30;;;10.50;99.90;;;;;;5054385;28;20028;-74
2023/10/31 05:24:04;;;;;;;1.48;0.40;;;10.50;99.90;;;;;;5053927;28;20021;-73
2023/10/31 05:26:30;;;;;;;1.58;0.50;;;10.50;99.90;;;;;;5053945;28;20033;-73
2023/10/31 05:28:59;;;;;;;1.38;0.40;;;10.50;99.90;;;;;;5054106;28;20468;-75
2023/10/31 05:31:25;;;;;;;0.77;0.40;;;10.50;99.90;;;;;;5054285;28;20025;-74
2023/10/31 05:33:53;;;;;;;0.70;0.50;;;10.50;99.90;;;;;;5054360;28;20075;-74
2023/10/31 05:36:23;;;;;;;0.93;0.70;;;10.50;99.90;;;;;;5053792;28;20498;-74
2023/10/31 05:38:49;;;;;;;0.52;0.35;;;10.60;99.90;;;;;;5053648;28;20094;-72
2023/10/31 05:41:15;;;;;;;0.40;0.30;;;10.50;99.90;;;;;;5053986;28;20029;-73
2023/10/31 05:43:41;;;;;;;0.85;0.30;;;10.50;99.90;;;;;;5054072;28;20036;-73
2023/10/31 05:46:10;;;;;;;1.98;0.40;;;10.40;99.90;;;;;;5053916;28;20538;-73
2023/10/31 05:48:38;;;;;;;0.32;0.20;;;10.50;99.90;;;;;;5053509;28;20032;-73
2023/10/31 05:51:04;;;;;;;1.42;0.60;;;10.50;99.90;;;;;;5053050;28;20106;-73
2023/10/31 05:53:33;;;;;;;2.17;0.65;;;10.50;99.90;;;;;;5053577;28;20098;-73
2023/10/31 05:55:58;;;;;;;1.00;0.30;;;10.50;99.90;;;;;;5053281;28;20021;-73
2023/10/31 05:58:24;;;;;;;0.52;0.32;;;10.50;99.90;;;;;;5053362;28;20113;-73
2023/10/31 06:00:49;;;;;;;0.85;0.30;;;10.50;99.90;;;;;;5053146;28;20033;-72
2023/10/31 06:03:15;;;;;;;1.02;0.30;;;10.40;99.90;;;;;;5053024;28;20036;-73
2023/10/31 06:05:41;;;;;;;2.80;0.43;;;10.50;99.90;;;;;;5052970;28;20025;-73
2023/10/31 06:08:06;;;;;;;3.50;0.40;;;10.50;99.90;;;;;;5053042;28;20120;-73
2023/10/31 06:10:32;;;;;;;1.17;0.40;;;10.40;99.90;;;;;;5052279;28;20031;-74
2023/10/31 06:12:57;;;;;;;0.57;0.20;;;10.40;99.90;;;;;;5052468;28;20099;-74
2023/10/31 06:15:23;;;;;;;2.05;0.40;;;10.40;99.90;;;;;;5052523;28;20458;-74
2023/10/31 06:17:48;;;;;;;0.50;0.30;;;10.30;99.90;;;;;;5052280;28;20017;-74
2023/10/31 06:20:14;;;;;;;0.65;0.40;;;10.30;99.90;;;;;;5051332;28;20036;-74
2023/10/31 06:22:40;;;;;;;0.63;0.30;;;10.30;99.90;;;;;;5052137;28;20066;-73
2023/10/31 06:25:05;;;;;;;4.00;0.35;;;10.30;99.90;;;;;;5052278;28;20384;-74
2023/10/31 06:27:31;;;;;;;0.65;0.35;;;10.30;99.90;;;;;;5052248;28;20101;-74
2023/10/31 06:29:56;;;;;;;1.65;0.50;;;10.30;99.90;;;;;;5052247;28;20021;-74
2023/10/31 06:32:22;;;;;;;1.80;0.38;;;10.30;99.90;;;;;;5052010;28;20091;-74
2023/10/31 06:34:48;;;;;;;0.90;0.38;;;10.20;99.90;;;;;;5051888;28;20029;-74
2023/10/31 06:37:13;;;;;;;3.47;0.43;;;10.30;99.90;;;;;;5051937;28;20480;-74
2023/10/31 06:39:39;;;;;;;4.10;0.75;;;10.30;99.90;;;;;;5051865;28;20084;-71
2023/10/31 06:42:04;;;;;;;1.70;0.52;;;10.30;99.90;;;;;;5051831;28;20057;-71
2023/10/31 06:44:30;;;;;;;1.83;0.50;;;10.30;99.90;;;;;;5051850;28;20029;-74
2023/10/31 06:46:56;;;;;;;0.93;0.40;;;10.30;99.90;;;;;;5051770;28;20100;-73
2023/10/31 06:49:22;;;;;;;0.88;0.52;;;10.40;99.90;;;;;;5051806;28;20480;-73
2023/10/31 06:51:48;;;;;;;4.95;0.52;;;10.40;99.90;;;;;;5051381;28;20036;-71
2023/10/31 06:54:13;;;;;;;2.15;0.68;;;10.40;99.90;;;;;;5051815;28;20033;-73
2023/10/31 06:56:39;;;;;;;0.85;0.40;;;10.40;99.90;;;;;;5051811;28;20021;-72
2023/10/31 06:59:05;;;;;;;1.30;0.50;;;10.50;99.90;;;;;;5051631;28;20116;-74
2023/10/31 07:01:31;;;;;;;1.98;0.40;;;10.50;99.90;;;;;;5051562;28;20025;-71
2023/10/31 07:03:56;;;;;;;0.88;0.50;;;10.50;99.90;;;;;;5051683;28;20049;-72
2023/10/31 07:06:22;;;;;;;2.85;0.60;;;10.50;99.90;;;;;;5051716;28;20021;-72
2023/10/31 07:08:48;;;;;;;1.60;0.70;;;10.50;99.90;;;;;;5051569;28;20082;-73
2023/10/31 07:11:13;;;;;;;1.65;0.50;;;10.50;99.90;;;;;;5051539;28;20017;-76
2023/10/31 07:13:39;;;;;;;1.92;0.50;;;10.50;99.90;;;;;;5051383;28;20471;-75
2023/10/31 07:16:05;;;;;;;1.50;0.60;;;10.50;99.90;;;;;;5051492;28;20021;-72
2023/10/31 07:18:31;;;;;;;2.75;1.00;;;10.50;99.90;;;;;;5051269;28;20014;-73
2023/10/31 07:20:56;;;;;;;1.20;0.60;;;10.60;99.90;;;;;;5051217;28;20098;-74
2023/10/31 07:23:22;;;;;;;2.13;0.52;;;10.50;99.90;;;;;;5051487;28;20388;-74
2023/10/31 07:25:47;;;;;;;1.70;0.70;;;10.50;99.90;;;;;;5051578;28;20033;-73
2023/10/31 07:28:13;;;;;;;2.20;0.50;;;10.60;99.90;;;;;;5050320;28;20448;-73
2023/10/31 07:30:39;;;;;;;4.05;0.60;;;10.60;99.90;;;;;;5051312;28;20061;-74
2023/10/31 07:33:04;;;;;;;1.15;0.55;;;10.50;99.90;;;;;;5052617;28;20078;-72
2023/10/31 07:35:32;;;;;;;1.92;0.52;;;10.60;99.90;;;;;;5052923;28;20065;-73
2023/10/31 07:37:57;;;;;;;1.30;0.70;;;10.60;99.90;;;;;;5047073;28;20043;-73
2023/10/31 07:40:23;;;;;;;2.92;0.50;;;10.70;99.90;;;;;;5048127;28;20029;-74
2023/10/31 07:42:49;;;;;;;2.03;0.50;;;10.70;99.90;;;;;;5050293;28;20368;-73
2023/10/31 07:45:14;;;;;;;0.88;0.50;;;10.80;99.90;;;;;;5052769;28;20030;-73
2023/10/31 07:47:40;;;;;;;1.65;0.60;;;10.90;99.90;;;;;;5052390;28;20438;-73
2023/10/31 07:50:05;;;;;;;1.40;0.50;;;11.00;99.90;;;;;;5052414;28;21267;-75
2023/10/31 07:52:31;;;;;;;5.22;0.50;;;11.00;99.90;;;;;;5055692;28;20025;-76
2023/10/31 07:54:57;;;;;;;1.25;0.47;;;11.10;99.90;;;;;;5050724;28;20021;-74
2023/10/31 07:57:22;;;;;;;2.25;0.52;;;11.10;99.90;;;;;;5051979;28;20432;-73
2023/10/31 07:59:48;;;;;;;2.55;1.10;;;11.10;99.90;;;;;;5054783;28;20116;-73
2023/10/31 08:02:13;;;;;;;1.90;0.80;;;11.20;99.90;;;;;;5048211;28;20033;-74
2023/10/31 08:04:39;;;;;;;2.85;1.05;;;11.20;99.90;;;;;;5041099;28;20024;-74
2023/10/31 08:07:05;;;;;;;0.60;0.30;;;11.20;99.90;;;;;;5048454;28;20936;-73
2023/10/31 08:09:30;;;;;;;4.03;0.43;;;11.30;99.90;;;;;;5049943;28;20508;-73
2023/10/31 08:11:56;;;;;;;1.73;0.70;;;11.40;99.90;;;;;;5043440;28;20031;-73
2023/10/31 08:14:22;;;;;;;2.17;0.63;;;11.40;99.90;;;;;;5045817;28;20041;-74
2023/10/31 08:16:47;;;;;;;2.15;0.75;;;11.40;99.90;;;;;;5047776;28;20119;-74
2023/10/31 08:19:14;;;;;;;1.70;0.50;;;11.40;99.90;;;;;;5046699;28;20087;-75
2023/10/31 08:21:40;;;;;;;1.88;0.73;;;11.40;99.90;;;;;;5046718;28;20049;-75
2023/10/31 08:24:06;;;;;;;2.88;0.98;;;11.40;99.90;;;;;;5050513;28;20056;-74
2023/10/31 08:26:32;;;;;;;1.02;0.43;;;11.50;99.90;;;;;;5048616;28;20025;-74
2023/10/31 08:28:58;;;;;;;2.63;0.70;;;11.50;99.90;;;;;;5050540;28;20025;-76
2023/10/31 08:31:24;;;;;;;1.95;0.45;;;11.60;99.90;;;;;;5046578;28;20690;-72
2023/10/31 08:33:49;;;;;;;3.97;0.90;;;11.60;99.90;;;;;;5045046;28;20029;-72
2023/10/31 08:36:15;;;;;;;1.50;0.55;;;11.60;99.90;;;;;;5042267;28;20029;-72
2023/10/31 08:38:41;;;;;;;2.15;0.80;;;11.70;99.90;;;;;;5047740;28;20025;-72
2023/10/31 08:41:06;;;;;;;2.35;0.70;;;11.70;99.90;;;;;;5048010;28;20376;-72
2023/10/31 08:43:32;;;;;;;1.58;0.73;;;11.70;99.90;;;;;;5044568;28;20487;-72
2023/10/31 08:45:58;;;;;;;2.65;0.93;;;11.80;99.90;;;;;;5046542;28;20025;-72
2023/10/31 08:48:24;;;;;;;3.40;1.00;;;11.80;99.90;;;;;;5044921;28;20170;-72
2023/10/31 08:50:50;;;;;;;2.88;0.70;;;11.80;99.90;;;;;;5048454;28;20025;-72
2023/10/31 08:53:16;;;;;;;3.38;0.90;;;11.80;99.90;;;;;;5046964;28;20036;-72
2023/10/31 08:55:44;;;;;;;5.90;0.93;;;11.80;99.90;;;;;;5039923;28;20033;-72
2023/10/31 08:58:14;;;;;;;4.93;0.88;;;11.90;99.90;;;;;;5042493;28;20025;-73
2023/10/31 09:00:43;;;;;;;2.15;0.60;;;11.90;99.90;;;;;;5042137;28;20033;-72
2023/10/31 09:03:09;;;;;;;7.72;1.08;;;12.00;99.90;;;;;;5042734;28;20025;-72
2023/10/31 09:05:34;;;;;;;3.63;0.70;;;12.00;99.90;;;;;;5043960;28;20093;-73
2023/10/31 09:08:00;;;;;;;2.03;0.70;;;12.00;99.90;;;;;;5043365;28;20214;-72
2023/10/31 09:10:26;;;;;;;4.45;1.10;;;12.10;99.90;;;;;;5061724;28;20119;-73
2023/10/31 09:12:51;;;;;;;4.18;1.48;;;12.10;99.90;;;;;;5048235;28;20228;-72
2023/10/31 09:15:18;;;;;;;2.38;0.80;;;12.10;99.90;;;;;;5045986;28;20026;-73
2023/10/31 09:17:44;;;;;;;4.20;1.25;;;12.20;99.90;;;;;;5044804;28;20460;-73
2023/10/31 09:20:11;;;;;;;5.78;1.13;;;12.20;99.90;;;;;;5047928;28;20029;-73
2023/10/31 09:22:37;;;;;;;5.53;0.80;;;12.20;99.90;;;;;;5054180;28;20021;-72
2023/10/31 09:25:03;;;;;;;3.83;1.08;;;12.20;99.90;;;;;;5047550;28;20021;-72
2023/10/31 09:27:29;;;;;;;3.22;1.20;;;12.30;99.90;;;;;;5036556;28;20365;-72
2023/10/31 09:29:54;;;;;;;3.08;0.73;;;12.30;99.90;;;;;;5035171;28;20025;-71
2023/10/31 09:32:20;;;;;;;3.15;1.10;;;12.30;99.90;;;;;;5030782;28;20044;-71
2023/10/31 09:34:46;;;;;;;2.88;1.05;;;12.30;99.90;;;;;;5032902;28;20122;-71
2023/10/31 09:37:12;;;;;;;4.97;0.85;;;12.40;99.90;;;;;;5050557;28;20040;-71
2023/10/31 09:39:37;;;;;;;5.53;1.10;;;12.40;99.90;;;;;;5046725;28;20044;-70
2023/10/31 09:42:03;;;;;;;15.38;1.70;;;12.50;99.90;;;;;;5051403;28;20028;-70
2023/10/31 09:44:29;;;;;;;4.20;0.90;;;12.50;99.90;;;;;;5047367;28;20476;-70
2023/10/31 09:46:56;;;;;;;3.72;0.80;;;12.60;99.90;;;;;;5048169;28;20053;-72
2023/10/31 09:49:22;;;;;;;5.10;0.70;;;12.60;99.90;;;;;;5046749;28;20290;-71
2023/10/31 09:51:48;;;;;;;2.78;0.70;;;12.60;99.90;;;;;;5046409;28;20086;-72
2023/10/31 09:54:16;;;;;;;4.68;0.60;;;12.60;99.90;;;;;;5045574;28;20328;-71
2023/10/31 09:56:43;;;;;;;5.57;1.05;;;12.70;99.90;;;;;;5049771;28;20458;-71
2023/10/31 09:59:09;;;;;;;5.38;1.23;;;12.70;99.90;;;;;;5046216;28;20024;-72
2023/10/31 10:01:35;;;;;;;2.95;0.80;;;12.80;99.90;;;;;;5044217;28;20027;-72
2023/10/31 10:04:01;;;;;;;2.97;1.00;;;12.80;99.90;;;;;;5047155;28;20028;-71
2023/10/31 10:06:27;;;;;;;5.65;0.82;;;12.90;99.90;;;;;;5047031;28;20426;-71
2023/10/31 10:08:52;;;;;;;8.10;1.00;;;12.90;99.90;;;;;;5047308;28;20027;-71
2023/10/31 10:11:19;;;;;;;3.17;0.90;;;12.90;99.90;;;;;;5048410;28;20469;-71
2023/10/31 10:13:44;;;;;;;4.95;0.70;;;13.00;99.90;;;;;;5045758;28;20045;-71
2023/10/31 10:16:10;;;;;;;4.40;0.70;;;13.00;99.90;;;;;;5040781;28;20126;-70
2023/10/31 10:18:40;;;;;;;2.17;0.85;;;13.00;99.90;;;;;;5043119;28;20029;-71
2023/10/31 10:21:06;;;;;;;1.92;0.70;;;13.10;99.90;;;;;;5046112;28;20032;-71
2023/10/31 10:23:33;;;;;;;3.53;0.98;;;13.10;99.90;;;;;;5047116;28;20119;-71
2023/10/31 10:26:00;;;;;;;2.97;0.75;;;13.20;99.90;;;;;;5043785;28;20017;-71
2023/10/31 10:28:26;;;;;;;4.43;0.95;;;13.20;99.90;;;;;;5047676;28;20500;-71
2023/10/31 10:30:53;;;;;;;4.38;0.70;;;13.20;99.90;;;;;;5046917;28;20048;-71
2023/10/31 10:33:20;;;;;;;3.35;0.80;;;13.30;99.90;;;;;;5047477;28;20472;-71
2023/10/31 10:35:46;;;;;;;2.97;0.82;;;13.30;99.90;;;;;;5045211;28;20411;-71
2023/10/31 10:38:19;;;;;;;3.92;1.10;;;13.30;99.90;;;;;;5045156;28;20029;-71
2023/10/31 10:40:48;;;;;;;3.07;1.20;;;13.30;99.90;;;;;;5042840;28;20559;-71
2023/10/31 10:43:17;;;;;;;1.45;0.70;;;13.30;99.90;;;;;;5043348;28;20281;-71
2023/10/31 10:45:46;;;;;;;6.85;0.82;;;13.30;99.90;;;;;;5046518;28;20051;-71
2023/10/31 10:48:15;;;;;;;2.55;0.60;;;13.20;99.90;;;;;;5045382;28;20033;-71
2023/10/31 10:50:47;;;;;;;2.88;0.80;;;13.20;99.90;;;;;;5047631;28;20079;-71
2023/10/31 10:53:26;;;;;;;3.60;0.93;;;13.30;99.90;;;;;;5047620;28;20039;-73
2023/10/31 10:56:03;;;;;;;2.58;1.20;;;13.20;99.90;;;;;;5035054;28;21002;-73
2023/10/31 10:58:34;;;;;;;2.72;0.70;;;13.20;99.90;;;;;;5041066;28;20037;-72
2023/10/31 11:01:01;;;;;;;2.72;0.70;;;13.20;99.90;;;;;;5041505;28;20021;-71
2023/10/31 11:03:29;;;;;;;4.18;1.35;;;13.20;99.90;;;;;;5047129;28;20044;-72
2023/10/31 11:05:55;;;;;;;5.07;1.50;;;13.20;99.90;;;;;;5042270;28;20025;-72
2023/10/31 11:08:23;;;;;;;2.30;0.73;;;13.20;99.90;;;;;;5044270;28;20029;-72
2023/10/31 11:10:50;;;;;;;5.47;0.80;;;13.30;99.90;;;;;;5040122;28;20527;-73
2023/10/31 11:13:15;;;;;;;1.08;0.60;;;13.30;99.90;;;;;;5043002;28;20029;-72
2023/10/31 11:15:42;;;;;;;4.05;0.75;;;13.30;99.90;;;;;;5042598;28;20046;-72
2023/10/31 11:18:09;;;;;;;4.82;0.68;;;13.30;99.90;;;;;;5044910;28;20039;-71
2023/10/31 11:20:36;;;;;;;3.58;0.70;;;13.30;99.90;;;;;;5041513;28;20032;-72
2023/10/31 11:23:06;;;;;;;4.13;0.57;;;13.30;99.90;;;;;;5044237;28;20031;-71
2023/10/31 11:25:32;;;;;;;3.13;0.70;;;13.40;99.90;;;;;;5040978;28;20103;-71
2023/10/31 11:28:11;;;;;;;1.45;0.50;;;13.40;99.90;;;;;;5040945;28;20472;-71
2023/10/31 11:30:37;;;;;;;3.00;0.70;;;13.50;99.90;;;;;;5041553;28;20025;-72
2023/10/31 11:33:05;;;;;;;2.80;0.98;;;13.50;99.90;;;;;;5042767;28;20029;-71
2023/10/31 11:35:32;;;;;;;2.20;0.60;;;13.60;99.90;;;;;;5037577;28;20480;-72
2023/10/31 11:38:06;;;;;;;4.30;0.77;;;13.60;99.90;;;;;;5046301;28;20392;-72
2023/10/31 11:40:32;;;;;;;1.02;0.60;;;13.70;99.90;;;;;;5035212;28;20040;-72
2023/10/31 11:43:01;;;;;;;1.17;0.52;;;13.70;99.90;;;;;;5042636;28;20029;-72
2023/10/31 11:45:41;;;;;;;2.72;0.45;;;13.70;99.90;;;;;;5050055;28;20029;-72
2023/10/31 11:48:08;;;;;;;1.67;0.60;;;13.80;99.90;;;;;;5037362;28;20417;-72
2023/10/31 11:50:34;;;;;;;3.20;0.73;;;13.80;99.90;;;;;;5049309;28;20082;-71
2023/10/31 11:53:05;;;;;;;1.20;0.45;;;13.80;99.90;;;;;;5044139;28;20529;-72
2023/10/31 11:55:36;;;;;;;3.50;0.52;;;13.80;99.90;;;;;;5042933;28;20021;-72
2023/10/31 11:58:21;;;;;;;2.88;0.60;;;13.80;99.90;;;;;;5033945;28;20029;-72
2023/10/31 12:00:51;;;;;;;2.28;0.43;;;13.80;99.90;;;;;;5041744;28;20388;-72
2023/10/31 12:03:19;;;;;;;1.40;0.70;;;13.80;99.90;;;;;;5040333;28;20025;-72
2023/10/31 12:05:55;;;;;;;1.52;0.40;;;13.80;99.90;;;;;;5038920;28;20087;-72
2023/10/31 12:08:31;;;;;;;1.30;0.50;;;13.80;99.90;;;;;;5040096;28;20101;-72
2023/10/31 12:11:08;;;;;;;1.52;0.50;;;13.80;99.90;;;;;;5037917;28;20040;-71
2023/10/31 12:13:35;;;;;;;0.98;0.50;;;13.80;99.90;;;;;;5043696;28;20033;-72
2023/10/31 12:16:01;;;;;;;3.85;0.63;;;13.80;99.90;;;;;;5037030;28;20041;-72
2023/10/31 12:18:28;;;;;;;1.50;0.60;;;13.90;99.90;;;;;;5040286;28;20041;-72
2023/10/31 12:20:53;;;;;;;2.22;0.95;;;13.90;99.90;;;;;;5040311;28;20036;-72
2023/10/31 12:23:19;;;;;;;1.35;0.40;;;13.90;99.90;;;;;;5042246;28;20464;-72
2023/10/31 12:25:51;;;;;;;4.63;0.82;;;14.00;99.90;;;;;;5046019;28;20033;-73
2023/10/31 12:28:27;;;;;;;2.33;1.00;;;14.00;99.90;;;;;;5039594;28;20167;-71
2023/10/31 12:30:54;;;;;;;1.98;0.60;;;14.00;99.90;;;;;;5044803;28;20032;-72
2023/10/31 12:33:22;;;;;;;1.40;0.55;;;14.00;99.90;;;;;;5042946;28;20476;-72
2023/10/31 12:35:49;;;;;;;2.13;0.50;;;14.10;99.90;;;;;;5044762;28;20044;-72
2023/10/31 12:38:15;;;;;;;1.02;0.60;;;14.10;99.90;;;;;;5034479;28;20029;-72
2023/10/31 12:40:43;;;;;;;0.90;0.50;;;14.10;99.90;;;;;;5044029;28;20447;-72
2023/10/31 12:43:09;;;;;;;0.77;0.32;;;14.10;99.90;;;;;;5044409;28;20105;-72